Tampa, FL

07:13 PM EST on Ιανουάριος 28, 2015 (GMT -0500)
MacDill Air Force Base | Change Station
CLOSE
Current Station
Airport
Location: Tampa Macdill AFB,
Elevation: 13 ft
Nearby Weather Stations

Elev 13 ft 27.85 °N, 82.52 °W | Updated 15 minutes ago

Αίθριος
Αίθριος
52 ° F
Feels Like 52 ° F
N
8
Ανεμος Μεταβλητός Ανεμος from Βόρειος

Σήμερα
High -- | Low -- ° F
--% Chance of Precip.
Yesterday
High -- | Low -- ° F
Precip. -- in
7:18 AM 6:07 PM
Αμφίκυρτος, 69% visible
Ατμοσφαιρική Πίεση 30.23 in
Ορατότητα 10.0 Μίλια
Σύννεφα Αίθριος
Σημείο Δρόσου 43 ° F
Υγρασία 71%
Rainfall 0.00 in
Snow Depth Not available.
Υπεριώδης ακτινοβολία (UV) 0 out of 12
Pollen 10.20 out of 12
Air Quality Not available.
Flu Activity Not available.
METAR KMCF 282358Z AUTO 01007KT 10SM CLR 11/06 A3022 RMK AO2 SLP237 T01110061 10174 20111 52013

More Conditions Fewer Conditions

Ατμοσφαιρική Πίεση 30.23 in
Ορατότητα 10.0 Μίλια
Σύννεφα Αίθριος
Σημείο Δρόσου 43 ° F
Υγρασία 71%
Rainfall 0.00 in
Snow Depth Not available.
Υπεριώδης ακτινοβολία (UV) 0 out of 12
Pollen 10.20 out of 12
Air Quality Not available.
Flu Activity Not available.
METAR KMCF 282358Z AUTO 01007KT 10SM CLR 11/06 A3022 RMK AO2 SLP237 T01110061 10174 20111 52013

More Conditions Fewer Conditions

10-Day Weather Forecast

Almanac

Αστρονομία

Jan. 28, 2015 Rise Set
Actual Time
Civil Twilight
Nautical Twilight
Astronomical Twilight
Moon
Length Of Visible Light
Διάρκεια ημέρας
Tomorrow will be .
, % of the Moon is Illuminated

Today's Extremes

State Highs State Lows

Community

WunderPhotos

Upload Photos

1,791,302 photos uploaded!

WunderBlogs® & News

Nearby

Air Quality

  Air Quality AQ Index Pollutant
Not available.

Snow Depth

Station Depth Elevation

Earthquake Activity

City Distance Mag. Time & Date
Minimum magnitude displayed is 2.5.

Coastal Water Temperatures

Τοποθεσία Θερμοκρασία

Nearby Weather Stations